This is the latest recevied weather packets stored in our database for station/object K1RFS. If no packets are shown the sender has not sent any weather packets the latest 10 day(s).
| Time | Temp. | Humidity | Pressure | Rain* | Wind** | Luminosity | Snow |
|---|---|---|---|---|---|---|---|
| 1787522514 | 28.33° C | 40% | 1005 hPa | 0 mm | - | 89 W/m² | - |
| 1787522213 | 28.89° C | 45% | 1005 hPa | 0 mm | - | 96 W/m² | - |
| 1787521913 | 27.78° C | 40% | 1005.2 hPa | 0 mm | - | 502 W/m² | - |
| 1787521612 | 25.56° C | 40% | 1005 hPa | 1.78 mm | - | 196 W/m² | - |
| 1787521312 | 25.56° C | 54% | 1005.3 hPa | 4.83 mm | - | 272 W/m² | - |
| 1787521007 | 23.33° C | 65% | 1005.2 hPa | 6.1 mm | - | 656 W/m² | - |
| 1787520702 | 25° C | 61% | 1005.6 hPa | 3.05 mm | - | 125 W/m² | - |
| 1787520398 | 25.56° C | 53% | 1005.7 hPa | 0 mm | - | 61 W/m² | - |
| 1787520094 | 26.67° C | 49% | 1005.5 hPa | 0 mm | - | 36 W/m² | - |
| 1787519790 | 30° C | 38% | 1005.4 hPa | 0 mm | - | 30 W/m² | - |
| 1787519485 | 30.56° C | 33% | 1005.4 hPa | 0 mm | - | 29 W/m² | - |
| 1787519184 | 30.56° C | 34% | 1005.3 hPa | 0 mm | - | 27 W/m² | - |
| 1787518880 | 30.56° C | 33% | 1005.4 hPa | 0 mm | - | 24 W/m² | - |
| 1787518575 | 30.56° C | 32% | 1005.4 hPa | 0 mm | - | 25 W/m² | - |
| 1787518270 | 31.11° C | 31% | 1005.4 hPa | 0 mm | - | 30 W/m² | - |
| 1787517966 | 31.11° C | 31% | 1005.4 hPa | 0 mm | - | 40 W/m² | - |
| 1787517661 | 31.11° C | 32% | 1005.4 hPa | 0 mm | - | 53 W/m² | - |
| 1787517358 | 31.11° C | 32% | 1005.5 hPa | 0 mm | - | 62 W/m² | - |
| 1787517053 | 31.11° C | 32% | 1005.5 hPa | 0 mm | - | 65 W/m² | - |
| 1787516748 | 31.67° C | 31% | 1005.3 hPa | 0 mm | - | 73 W/m² | - |
| 1787516443 | 32.78° C | 30% | 1005.4 hPa | 0 mm | - | 89 W/m² | - |
| 1787516143 | 33.33° C | 30% | 1005.5 hPa | 0 mm | - | 99 W/m² | - |
| 1787515838 | 33.89° C | 30% | 1005.4 hPa | 0 mm | - | 172 W/m² | - |
| 1787515535 | 34.44° C | 28% | 1005.7 hPa | 0 mm | - | 696 W/m² | - |
| 1787515234 | 35° C | 27% | 1006 hPa | 0 mm | - | 364 W/m² | - |
* Rain latest hour (hover to see other rain measurements)
** Current wind speed in m/s (hover to see current wind gust speed)